Time;durP1;ratioP1;P1;durP2;ratioP2;P2;SDS_P1;SDS_P2;PMS_P1;PMS_P2;Temp;Humidity;BMP_temperature;BMP_pressure;BME280_temperature;BME280_humidity;BME280_pressure;Samples;Min_cycle;Max_cycle;Signal;HPM_P1;HPM_P2
2022/11/04 00:01:49;;;;;;;8.38;1.63;;;;;;;6.11;100.00;99620.13;4857156;29;20037;-90
2022/11/04 00:04:21;;;;;;;5.15;1.60;;;;;;;6.13;100.00;99626.03;4881611;29;20099;-90
2022/11/04 00:06:52;;;;;;;4.50;1.60;;;;;;;6.14;100.00;99621.63;4857491;29;20490;-88
2022/11/04 00:09:25;;;;;;;7.63;1.70;;;;;;;6.13;100.00;99625.22;4875573;29;20041;-89
2022/11/04 00:14:44;;;;;;;4.88;1.40;;;;;;;6.08;100.00;99636.13;4876567;29;20044;-89
2022/11/04 00:17:23;;;;;;;8.27;1.77;;;;;;;6.01;100.00;99638.41;4870623;29;20068;-89
2022/11/04 00:33:58;;;;;;;5.28;1.88;;;;;;;5.82;100.00;99673.28;4873686;29;20036;-89
2022/11/04 00:36:29;;;;;;;7.85;1.77;;;;;;;5.77;100.00;99673.69;4875920;29;20043;-88
2022/11/04 00:38:59;;;;;;;6.57;1.63;;;;;;;5.78;100.00;99677.97;4863024;29;20041;-90
2022/11/04 00:41:29;;;;;;;4.15;1.50;;;;;;;5.77;100.00;99675.47;4890351;29;20061;-88
2022/11/04 00:44:02;;;;;;;5.53;1.27;;;;;;;5.71;100.00;99703.91;4863307;29;20047;-89
2022/11/04 00:46:34;;;;;;;8.13;1.70;;;;;;;5.67;100.00;99717.41;4872774;29;21506;-88
2022/11/04 00:49:03;;;;;;;4.35;1.52;;;;;;;5.67;100.00;99739.19;4861544;29;20040;-88
2022/11/04 00:51:33;;;;;;;7.68;1.77;;;;;;;5.66;100.00;99732.28;4875078;29;20033;-88
2022/11/04 00:54:02;;;;;;;5.38;1.17;;;;;;;5.68;100.00;99733.00;4844785;29;20056;-89
2022/11/04 00:56:30;;;;;;;4.90;1.73;;;;;;;5.70;100.00;99735.50;4874704;29;20086;-88
2022/11/04 00:58:58;;;;;;;9.95;2.08;;;;;;;5.72;100.00;99746.66;4890949;29;20033;-88
2022/11/04 01:01:26;;;;;;;2.30;1.20;;;;;;;5.71;100.00;99763.38;4859724;29;20075;-88
2022/11/04 01:03:56;;;;;;;3.25;1.40;;;;;;;5.74;100.00;99770.13;4859774;29;20479;-88
2022/11/04 01:06:27;;;;;;;5.47;1.95;;;;;;;5.73;100.00;99781.59;4862566;29;20037;-87
2022/11/04 01:08:59;;;;;;;6.07;3.63;;;;;;;5.68;100.00;99790.69;4880862;29;20060;-88
2022/11/04 01:11:30;;;;;;;9.02;4.32;;;;;;;5.67;100.00;99794.25;4845415;29;20147;-86
2022/11/04 01:14:01;;;;;;;5.78;2.78;;;;;;;5.64;100.00;99788.47;4858253;29;20038;-88
2022/11/04 01:16:31;;;;;;;9.05;4.45;;;;;;;5.61;100.00;99792.16;4875993;29;20123;-88
2022/11/04 01:19:01;;;;;;;4.72;3.90;;;;;;;5.63;100.00;99805.13;4858938;29;20044;-88
2022/11/04 01:21:32;;;;;;;10.10;4.53;;;;;;;5.61;100.00;99810.50;4861557;29;20036;-88
2022/11/04 01:24:02;;;;;;;10.52;5.70;;;;;;;5.59;100.00;99820.28;4868265;29;20033;-88
2022/11/04 01:26:32;;;;;;;7.50;4.40;;;;;;;5.55;100.00;99816.25;4860494;29;20029;-87
2022/11/04 01:29:02;;;;;;;13.77;6.20;;;;;;;5.55;100.00;99814.47;4861911;29;21030;-88
2022/11/04 01:31:32;;;;;;;11.25;5.18;;;;;;;5.57;100.00;99814.34;4877788;29;20036;-89
2022/11/04 01:34:02;;;;;;;7.68;5.35;;;;;;;5.59;100.00;99812.41;4891492;29;20092;-89
2022/11/04 01:36:32;;;;;;;9.00;5.85;;;;;;;5.59;100.00;99826.34;4879705;29;20097;-88
2022/11/04 01:39:02;;;;;;;10.05;5.72;;;;;;;5.60;100.00;99829.81;4864721;29;20159;-88
2022/11/04 01:41:32;;;;;;;9.20;5.00;;;;;;;5.56;100.00;99836.25;4866642;29;20100;-88
2022/11/04 01:44:03;;;;;;;8.13;5.55;;;;;;;5.55;100.00;99832.81;4878614;29;20037;-88
2022/11/04 01:46:37;;;;;;;8.25;5.30;;;;;;;5.56;100.00;99842.34;4854578;29;20037;-87
2022/11/04 01:49:18;;;;;;;9.77;6.07;;;;;;;5.55;100.00;99837.22;4865337;29;20041;-88
2022/11/04 01:51:52;;;;;;;10.27;5.72;;;;;;;5.50;100.00;99835.00;4866139;29;20450;-88
2022/11/04 01:54:22;;;;;;;9.23;5.07;;;;;;;5.47;100.00;99845.72;4865039;29;20397;-89
2022/11/04 01:56:51;;;;;;;6.47;4.65;;;;;;;5.43;100.00;99855.63;4879927;29;20450;-87
2022/11/04 01:59:25;;;;;;;7.55;4.57;;;;;;;5.41;100.00;99867.19;4880184;29;20045;-88
2022/11/04 02:01:55;;;;;;;5.13;4.28;;;;;;;5.37;100.00;99876.28;4879729;29;20448;-88
2022/11/04 02:04:26;;;;;;;12.20;4.55;;;;;;;5.34;100.00;99880.81;4883017;29;20527;-88
2022/11/04 02:07:02;;;;;;;9.63;5.53;;;;;;;5.35;100.00;99884.25;4872234;29;20121;-88
2022/11/04 02:09:33;;;;;;;10.82;4.60;;;;;;;5.34;100.00;99888.66;4867133;29;20037;-88
2022/11/04 02:14:50;;;;;;;11.20;3.95;;;;;;;5.29;100.00;99897.84;4882639;29;20132;-88
2022/11/04 02:17:19;;;;;;;8.02;3.88;;;;;;;5.26;100.00;99914.66;4869547;29;20128;-88
2022/11/04 02:20:09;;;;;;;11.63;4.20;;;;;;;5.22;100.00;99919.28;4904337;29;20116;-88
2022/11/04 02:22:44;;;;;;;6.65;3.60;;;;;;;5.20;100.00;99925.63;4863587;29;20422;-88
2022/11/04 02:25:51;;;;;;;6.97;3.85;;;;;;;5.21;100.00;99935.97;4881080;29;20390;-87
2022/11/04 02:28:36;;;;;;;6.10;3.50;;;;;;;5.19;100.00;99944.94;4877767;29;20052;-88
2022/11/04 02:31:24;;;;;;;6.50;3.90;;;;;;;5.20;100.00;99950.03;4879924;29;20032;-88
2022/11/04 02:34:11;;;;;;;4.68;2.88;;;;;;;5.22;100.00;99947.31;4882068;29;20124;-88
2022/11/04 02:36:52;;;;;;;5.80;2.67;;;;;;;5.24;100.00;99953.22;4850251;29;20136;-88
2022/11/04 02:39:34;;;;;;;5.28;3.13;;;;;;;5.24;100.00;99947.19;4896245;29;20037;-87
2022/11/04 02:42:13;;;;;;;10.48;3.35;;;;;;;5.21;100.00;99953.47;4893167;29;20419;-87
2022/11/04 02:44:51;;;;;;;4.68;2.70;;;;;;;5.18;100.00;99943.25;4848117;29;20052;-88
2022/11/04 02:47:26;;;;;;;6.05;2.63;;;;;;;5.18;100.00;99948.47;4896087;29;20077;-88
2022/11/04 02:50:03;;;;;;;5.47;2.67;;;;;;;5.22;100.00;99957.78;4882671;29;20053;-88
2022/11/04 02:52:49;;;;;;;6.30;2.72;;;;;;;5.20;100.00;99959.69;4833878;29;20061;-88
2022/11/04 02:55:25;;;;;;;5.97;2.80;;;;;;;5.23;100.00;99972.53;4869091;29;20037;-88
2022/11/04 02:57:59;;;;;;;4.85;2.55;;;;;;;5.27;100.00;99970.53;4883486;29;20479;-88
2022/11/04 03:00:28;;;;;;;4.53;2.95;;;;;;;5.27;100.00;99965.28;4895551;29;20265;-87
2022/11/04 03:03:02;;;;;;;3.35;2.20;;;;;;;5.27;100.00;99968.72;4874421;29;20447;-88
2022/11/04 03:05:36;;;;;;;3.85;2.22;;;;;;;5.28;100.00;99965.16;4858060;29;20036;-87
2022/11/04 03:08:20;;;;;;;4.30;2.33;;;;;;;5.29;100.00;99965.97;4849722;29;20041;-88
2022/11/04 03:10:53;;;;;;;6.80;2.25;;;;;;;5.30;100.00;99972.91;4864487;29;20043;-88
2022/11/04 03:13:36;;;;;;;8.05;1.90;;;;;;;5.33;100.00;99975.28;4877297;29;20088;-88
2022/11/04 03:16:13;;;;;;;2.25;1.73;;;;;;;5.38;100.00;99986.22;4847592;29;20044;-88
2022/11/04 03:18:54;;;;;;;4.25;1.75;;;;;;;5.41;100.00;99988.59;4846237;29;20063;-88
2022/11/04 03:21:26;;;;;;;3.17;1.23;;;;;;;5.47;100.00;99995.13;4878842;29;20085;-89
2022/11/04 03:23:55;;;;;;;3.38;1.45;;;;;;;5.54;100.00;99995.50;4863015;29;20367;-88
2022/11/04 03:26:28;;;;;;;2.35;1.23;;;;;;;5.58;100.00;100000.38;4892496;29;20034;-88
2022/11/04 03:29:16;;;;;;;2.88;1.27;;;;;;;5.63;100.00;99999.16;4865790;29;20478;-88
2022/11/04 03:32:00;;;;;;;1.98;1.10;;;;;;;5.65;100.00;100019.06;4870324;29;20509;-89
2022/11/04 03:34:30;;;;;;;4.13;1.42;;;;;;;5.65;100.00;100023.47;4893976;29;20085;-88
2022/11/04 03:37:01;;;;;;;1.10;0.90;;;;;;;5.68;100.00;100015.34;4846429;29;20033;-87
2022/11/04 03:39:31;;;;;;;1.98;0.73;;;;;;;5.69;100.00;100020.47;4879105;29;20043;-88
2022/11/04 03:42:18;;;;;;;10.30;1.85;;;;;;;5.72;100.00;100035.13;4878528;29;20103;-89
2022/11/04 03:44:53;;;;;;;3.28;1.10;;;;;;;5.75;100.00;100041.94;4873157;29;20045;-88
2022/11/04 03:47:24;;;;;;;3.70;1.17;;;;;;;5.70;100.00;100032.63;4864517;29;20525;-88
2022/11/04 03:50:06;;;;;;;2.58;1.20;;;;;;;5.70;100.00;100047.53;4863264;29;20037;-88
2022/11/04 03:52:35;;;;;;;2.72;1.35;;;;;;;5.64;100.00;100053.28;4860602;29;20044;-88
2022/11/04 03:55:04;;;;;;;5.25;1.70;;;;;;;5.56;100.00;100049.44;4893079;29;20033;-88
2022/11/04 03:57:49;;;;;;;2.45;1.30;;;;;;;5.48;100.00;100053.66;4884156;29;20479;-88
2022/11/04 04:00:20;;;;;;;4.47;1.45;;;;;;;5.40;100.00;100055.06;4877772;29;20040;-88
2022/11/04 04:03:07;;;;;;;2.88;1.48;;;;;;;5.36;100.00;100056.28;4861678;29;20044;-87
2022/11/04 04:06:11;;;;;;;3.03;1.60;;;;;;;5.27;100.00;100063.06;4845174;29;20037;-88
2022/11/04 04:08:47;;;;;;;4.68;1.75;;;;;;;5.23;100.00;100072.13;4840149;29;20075;-88
2022/11/04 04:11:44;;;;;;;2.78;1.63;;;;;;;5.19;100.00;100082.00;4865888;29;20039;-88
2022/11/04 04:14:41;;;;;;;2.75;1.75;;;;;;;5.16;100.00;100095.31;4878090;29;20041;-88
2022/11/04 04:17:14;;;;;;;;;;;;;;;5.02;100.00;100104.25;4856800;29;20053;-88
2022/11/04 04:19:49;;;;;;;6.30;2.25;;;;;;;4.96;100.00;100102.94;4869488;29;19916;-88
2022/11/04 04:22:27;;;;;;;4.18;1.60;;;;;;;4.97;100.00;100088.88;4844943;29;20530;-88
2022/11/04 04:27:50;;;;;;;4.10;1.60;;;;;;;5.03;100.00;100092.00;4885309;29;20142;-88
2022/11/04 04:30:20;;;;;;;4.63;1.35;;;;;;;5.05;100.00;100098.78;4860240;29;20502;-89
2022/11/04 04:32:55;;;;;;;6.30;1.33;;;;;;;5.13;100.00;100095.56;4869327;29;20041;-88
2022/11/04 04:35:40;;;;;;;1.52;0.77;;;;;;;5.20;100.00;100107.25;4861826;29;20040;-87
2022/11/04 04:47:19;;;;;;;2.90;0.82;;;;;;;5.41;100.00;100129.31;4884626;29;20044;-88
2022/11/04 04:49:54;;;;;;;1.27;0.80;;;;;;;5.42;100.00;100138.81;4859067;29;20037;-88
2022/11/04 04:52:27;;;;;;;4.60;0.80;;;;;;;5.44;100.00;100142.16;4860177;29;20041;-86
2022/11/04 04:54:57;;;;;;;3.08;0.80;;;;;;;5.45;100.00;100154.31;4874065;29;21145;-87
2022/11/04 04:57:25;;;;;;;2.60;0.98;;;;;;;5.44;100.00;100153.50;4852064;29;20041;-88
2022/11/04 04:59:53;;;;;;;5.50;0.88;;;;;;;5.46;100.00;100162.06;4875944;29;20040;-87
2022/11/04 05:02:21;;;;;;;1.60;0.90;;;;;;;5.49;100.00;100157.53;4855991;29;20078;-88
2022/11/04 05:04:49;;;;;;;1.90;1.50;;;;;;;5.48;100.00;100159.31;4876220;29;20068;-87
2022/11/04 05:07:19;;;;;;;4.10;1.08;;;;;;;5.51;100.00;100168.75;4876953;29;20128;-88
2022/11/04 05:09:48;;;;;;;2.33;1.38;;;;;;;5.49;100.00;100161.00;4862804;29;20036;-88
2022/11/04 05:12:15;;;;;;;3.03;1.10;;;;;;;5.45;100.00;100160.41;4849214;29;20487;-87
2022/11/04 05:14:43;;;;;;;3.13;1.17;;;;;;;5.45;100.00;100164.81;4893713;29;20039;-88
2022/11/04 05:17:11;;;;;;;2.28;0.60;;;;;;;5.45;100.00;100170.88;4877020;29;20397;-87
2022/11/04 05:19:41;;;;;;;2.33;0.90;;;;;;;5.56;100.00;100183.16;4876796;29;20045;-87
2022/11/04 05:22:11;;;;;;;2.53;0.88;;;;;;;5.63;100.00;100185.31;4865792;29;20037;-87
2022/11/04 05:24:41;;;;;;;1.60;0.63;;;;;;;5.65;100.00;100186.88;4871409;29;20516;-88
2022/11/04 05:27:10;;;;;;;5.68;0.90;;;;;;;5.68;100.00;100196.28;4865255;29;20119;-88
2022/11/04 05:29:40;;;;;;;3.72;0.52;;;;;;;5.68;100.00;100197.13;4871404;29;20036;-88
2022/11/04 05:32:09;;;;;;;3.08;1.20;;;;;;;5.70;100.00;100202.25;4893835;29;20040;-87
2022/11/04 05:34:37;;;;;;;2.63;0.40;;;;;;;5.69;100.00;100203.19;4870709;29;20045;-87
2022/11/04 05:37:07;;;;;;;3.42;0.82;;;;;;;5.73;100.00;100198.56;4850121;29;20032;-88
2022/11/04 05:39:36;;;;;;;3.83;0.90;;;;;;;5.73;100.00;100198.56;4906351;29;20478;-88
2022/11/04 05:42:04;;;;;;;2.88;0.47;;;;;;;5.69;100.00;100193.56;4845933;29;20037;-87
2022/11/04 05:44:31;;;;;;;4.53;0.43;;;;;;;5.71;100.00;100190.81;4888593;29;20040;-88
2022/11/04 05:46:59;;;;;;;2.22;0.60;;;;;;;5.72;100.00;100189.84;4875253;29;20037;-88
2022/11/04 05:49:27;;;;;;;2.10;0.52;;;;;;;5.77;100.00;100194.72;4867974;29;20044;-88
2022/11/04 05:51:55;;;;;;;3.03;0.40;;;;;;;5.77;100.00;100190.31;4883013;29;20029;-86
2022/11/04 05:54:22;;;;;;;4.57;0.50;;;;;;;5.82;100.00;100195.22;4873215;29;20131;-88
2022/11/04 05:56:50;;;;;;;4.47;0.60;;;;;;;5.81;100.00;100189.13;4899812;29;20393;-87
2022/11/04 05:59:18;;;;;;;1.73;0.40;;;;;;;5.81;100.00;100196.19;4880073;29;20033;-88
2022/11/04 06:01:47;;;;;;;1.77;0.63;;;;;;;5.86;100.00;100201.88;4881380;29;20068;-88
2022/11/04 06:04:17;;;;;;;3.83;0.50;;;;;;;5.89;100.00;100206.06;4898328;29;20092;-87
2022/11/04 06:06:45;;;;;;;5.20;0.68;;;;;;;5.88;100.00;100223.59;4853349;29;20063;-88
2022/11/04 06:09:13;;;;;;;1.55;0.90;;;;;;;5.92;100.00;100224.19;4868399;29;20036;-88
2022/11/04 06:11:41;;;;;;;3.13;0.57;;;;;;;5.92;100.00;100247.81;4884886;29;20603;-88
2022/11/04 06:14:09;;;;;;;2.75;0.73;;;;;;;5.91;100.00;100246.16;4881554;29;20088;-89
2022/11/04 06:16:36;;;;;;;3.70;0.70;;;;;;;5.90;100.00;100242.69;4882682;29;20036;-89
2022/11/04 06:19:04;;;;;;;3.67;0.93;;;;;;;5.94;100.00;100251.16;4846191;29;20045;-88
2022/11/04 06:21:33;;;;;;;6.40;0.88;;;;;;;5.94;100.00;100240.66;4864231;29;20032;-88
2022/11/04 06:24:01;;;;;;;3.42;0.50;;;;;;;5.96;100.00;100242.19;4877687;29;20033;-88
2022/11/04 06:26:32;;;;;;;7.10;1.25;;;;;;;5.96;100.00;100241.34;4864106;29;20040;-87
2022/11/04 06:29:02;;;;;;;2.25;0.20;;;;;;;5.99;100.00;100248.16;4847925;29;20057;-87
2022/11/04 06:31:32;;;;;;;4.40;0.70;;;;;;;5.95;100.00;100245.78;4848404;29;20033;-88
2022/11/04 06:34:01;;;;;;;2.65;0.85;;;;;;;5.82;100.00;100266.88;4880717;29;20071;-88
2022/11/04 06:36:28;;;;;;;3.58;0.60;;;;;;;5.58;100.00;100264.31;4861871;29;20435;-88
2022/11/04 06:38:56;;;;;;;2.42;0.47;;;;;;;5.34;100.00;100263.44;4867282;29;20041;-88
2022/11/04 06:41:24;;;;;;;3.58;0.43;;;;;;;5.25;100.00;100272.00;4861107;29;20033;-88
2022/11/04 06:43:53;;;;;;;1.45;0.35;;;;;;;5.24;100.00;100266.88;4879314;29;20053;-88
2022/11/04 06:46:40;;;;;;;1.00;0.30;;;;;;;5.20;100.00;100272.34;4883994;29;20094;-88
2022/11/04 06:49:16;;;;;;;5.43;0.77;;;;;;;5.16;100.00;100267.44;4850071;29;20407;-88
2022/11/04 06:51:47;;;;;;;1.85;0.50;;;;;;;5.13;100.00;100267.66;4877225;29;20048;-88
2022/11/04 06:54:17;;;;;;;7.15;0.95;;;;;;;5.07;100.00;100277.66;4875697;29;20845;-88
2022/11/04 06:56:46;;;;;;;1.25;0.57;;;;;;;5.04;100.00;100283.09;4872920;29;20039;-88
2022/11/04 06:59:19;;;;;;;2.03;0.70;;;;;;;5.03;100.00;100294.50;4863130;29;20041;-88
2022/11/04 07:01:50;;;;;;;3.05;0.50;;;;;;;5.02;100.00;100286.75;4874984;29;20491;-88
2022/11/04 07:04:19;;;;;;;1.92;0.50;;;;;;;5.01;100.00;100291.19;4886824;29;20376;-88
2022/11/04 07:06:47;;;;;;;2.85;0.70;;;;;;;4.99;100.00;100277.38;4848502;29;20033;-87
2022/11/04 07:09:15;;;;;;;5.32;0.60;;;;;;;5.00;100.00;100276.41;4863913;29;20482;-87
2022/11/04 07:11:44;;;;;;;8.40;0.47;;;;;;;5.00;100.00;100280.81;4874552;29;20400;-88
2022/11/04 07:14:13;;;;;;;2.00;0.77;;;;;;;4.98;100.00;100291.41;4875177;29;20041;-87
2022/11/04 07:16:41;;;;;;;3.17;0.55;;;;;;;4.96;100.00;100290.69;4876057;29;20561;-88
2022/11/04 07:19:08;;;;;;;1.27;0.80;;;;;;;4.96;100.00;100301.16;4876030;29;20076;-88
2022/11/04 07:21:36;;;;;;;3.72;0.50;;;;;;;4.92;100.00;100304.97;4862056;29;20124;-86
2022/11/04 07:24:04;;;;;;;7.72;0.60;;;;;;;4.93;100.00;100294.38;4861477;29;20044;-88
2022/11/04 07:26:32;;;;;;;2.13;0.50;;;;;;;4.91;100.00;100301.50;4860388;29;20494;-88
2022/11/04 07:29:01;;;;;;;2.65;0.77;;;;;;;4.89;100.00;100305.19;4889237;29;20052;-88
2022/11/04 07:31:29;;;;;;;3.50;0.50;;;;;;;4.87;100.00;100304.44;4858239;29;20132;-88
2022/11/04 07:33:56;;;;;;;2.88;0.50;;;;;;;4.86;100.00;100302.78;4883112;29;20116;-88
2022/11/04 07:36:24;;;;;;;1.38;0.22;;;;;;;4.83;100.00;100304.66;4877927;29;20048;-87
2022/11/04 07:38:53;;;;;;;1.10;0.30;;;;;;;4.88;100.00;100316.59;4861610;29;20045;-87
2022/11/04 07:41:22;;;;;;;1.65;0.40;;;;;;;4.87;100.00;100322.78;4881411;29;20508;-87
2022/11/04 07:43:53;;;;;;;3.53;0.40;;;;;;;4.85;100.00;100325.50;4867337;29;20563;-87
2022/11/04 07:46:22;;;;;;;3.05;0.60;;;;;;;4.74;100.00;100322.81;4888445;29;20034;-87
2022/11/04 07:48:50;;;;;;;1.05;0.55;;;;;;;4.63;100.00;100324.44;4893273;29;20030;-87
2022/11/04 07:51:19;;;;;;;0.75;0.40;;;;;;;4.58;100.00;100330.00;4870159;29;20048;-86
2022/11/04 07:53:47;;;;;;;3.05;0.47;;;;;;;4.54;100.00;100328.50;4869656;29;20366;-87
2022/11/04 07:56:17;;;;;;;3.08;0.73;;;;;;;4.54;100.00;100333.75;4875691;29;20041;-88
2022/11/04 07:58:45;;;;;;;0.93;0.50;;;;;;;4.54;100.00;100341.59;4874872;29;20490;-88
2022/11/04 08:01:16;;;;;;;1.65;0.57;;;;;;;4.58;100.00;100343.09;4842819;29;20047;-87
2022/11/04 08:03:44;;;;;;;2.53;0.68;;;;;;;4.56;100.00;100344.97;4871356;29;20044;-87
2022/11/04 08:06:14;;;;;;;2.47;0.60;;;;;;;4.57;100.00;100356.28;4859392;29;20044;-88
2022/11/04 08:08:44;;;;;;;2.65;0.75;;;;;;;4.59;100.00;100362.22;4846382;29;20036;-88
2022/11/04 08:11:14;;;;;;;1.30;0.57;;;;;;;4.57;100.00;100357.09;4859687;29;20036;-88
2022/11/04 08:13:43;;;;;;;5.13;0.60;;;;;;;4.59;100.00;100363.06;4855472;29;20088;-88
2022/11/04 08:16:21;;;;;;;3.50;1.50;;;;;;;4.61;100.00;100367.34;4861173;29;20475;-87
2022/11/04 08:18:52;;;;;;;3.90;0.80;;;;;;;4.58;100.00;100374.50;4858740;29;20052;-87
2022/11/04 08:21:22;;;;;;;4.28;0.95;;;;;;;4.63;100.00;100384.66;4849329;29;20033;-87
2022/11/04 08:23:52;;;;;;;1.05;0.65;;;;;;;4.66;100.00;100384.44;4843640;29;20045;-88
2022/11/04 08:26:23;;;;;;;1.10;0.80;;;;;;;4.66;100.00;100383.59;4875688;29;20037;-87
2022/11/04 08:28:53;;;;;;;6.32;0.88;;;;;;;4.61;100.00;100390.91;4857175;29;20551;-85
2022/11/04 08:31:25;;;;;;;3.00;1.00;;;;;;;4.61;100.00;100394.38;4889793;29;21462;-88
2022/11/04 08:33:56;;;;;;;4.93;1.20;;;;;;;4.65;100.00;100414.16;4870623;29;20164;-89
2022/11/04 08:36:35;;;;;;;5.28;1.05;;;;;;;4.68;100.00;100413.94;4875239;29;20037;-88
2022/11/04 08:39:06;;;;;;;3.35;1.10;;;;;;;4.76;100.00;100418.63;4875835;29;20111;-88
2022/11/04 08:41:37;;;;;;;6.70;1.25;;;;;;;4.84;100.00;100428.59;4877226;29;20064;-88
2022/11/04 08:44:08;;;;;;;4.22;1.00;;;;;;;4.93;100.00;100429.72;4878105;29;20037;-89
2022/11/04 08:46:39;;;;;;;2.03;0.70;;;;;;;5.01;100.00;100432.66;4864090;29;20041;-87
2022/11/04 08:49:09;;;;;;;3.55;0.95;;;;;;;5.12;100.00;100431.88;4889846;29;20491;-86
2022/11/04 08:51:42;;;;;;;3.10;0.70;;;;;;;5.23;100.00;100433.75;4857032;29;20380;-89
2022/11/04 08:54:12;;;;;;;4.90;1.30;;;;;;;5.31;100.00;100434.03;4860188;29;20037;-89
2022/11/04 08:56:42;;;;;;;7.90;0.80;;;;;;;5.36;100.00;100432.84;4871459;29;20164;-89
2022/11/04 08:59:13;;;;;;;6.28;0.77;;;;;;;5.37;100.00;100437.16;4889636;29;20036;-89
2022/11/04 09:01:44;;;;;;;9.00;0.60;;;;;;;5.45;100.00;100448.75;4857509;29;20125;-87
2022/11/04 09:04:13;;;;;;;1.55;0.73;;;;;;;5.49;100.00;100438.91;4856299;29;20120;-87
2022/11/04 09:06:44;;;;;;;2.42;1.00;;;;;;;5.53;100.00;100445.59;4859893;29;20663;-89
2022/11/04 09:09:17;;;;;;;3.88;0.82;;;;;;;5.61;100.00;100438.94;4876241;29;20040;-89
2022/11/04 09:11:47;;;;;;;6.07;0.60;;;;;;;5.66;100.00;100440.28;4876828;29;20067;-88
2022/11/04 09:14:17;;;;;;;2.55;0.60;;;;;;;5.71;100.00;100437.31;4874280;29;20065;-89
2022/11/04 09:16:47;;;;;;;3.03;0.85;;;;;;;5.76;100.00;100436.97;4861680;29;20064;-88
2022/11/04 09:19:15;;;;;;;8.10;1.17;;;;;;;5.86;100.00;100447.63;4859945;29;20124;-88
2022/11/04 09:21:43;;;;;;;4.10;0.65;;;;;;;5.96;100.00;100456.50;4861323;29;20025;-90
2022/11/04 09:24:13;;;;;;;3.88;0.60;;;;;;;6.01;100.00;100454.38;4876367;29;20069;-90
2022/11/04 09:26:43;;;;;;;4.43;0.60;;;;;;;6.04;100.00;100448.91;4891785;29;20097;-87
2022/11/04 09:29:13;;;;;;;4.75;0.70;;;;;;;6.14;100.00;100451.69;4860453;29;20124;-87
2022/11/04 09:31:43;;;;;;;4.22;0.75;;;;;;;6.25;100.00;100444.78;4851847;29;20061;-90
2022/11/04 09:34:12;;;;;;;7.50;1.05;;;;;;;6.35;100.00;100461.53;4854804;29;20073;-89
2022/11/04 09:36:39;;;;;;;5.82;0.80;;;;;;;6.43;100.00;100456.50;4858735;29;20096;-89
2022/11/04 09:39:08;;;;;;;4.40;0.70;;;;;;;6.50;100.00;100466.56;4883037;29;20041;-90
2022/11/04 09:41:51;;;;;;;6.65;1.25;;;;;;;6.54;100.00;100463.59;4857265;29;20063;-85
2022/11/04 09:45:06;;;;;;;2.40;0.75;;;;;;;6.57;100.00;100444.97;4865804;29;20060;-87
2022/11/04 09:47:39;;;;;;;6.55;0.63;;;;;;;6.63;100.00;100445.44;4856954;29;20466;-89
2022/11/04 09:50:20;;;;;;;8.95;1.40;;;;;;;6.65;100.00;100443.53;4849471;29;20077;-89
2022/11/04 09:53:20;;;;;;;5.07;0.77;;;;;;;6.64;100.00;100447.13;4844136;29;20044;-89
2022/11/04 09:55:57;;;;;;;2.97;0.70;;;;;;;6.69;100.00;100452.84;4870316;29;20045;-89
2022/11/04 09:58:32;;;;;;;8.38;1.63;;;;;;;6.74;100.00;100460.38;4861017;29;20494;-89
2022/11/04 10:01:26;;;;;;;5.37;1.10;;;;;;;6.77;100.00;100449.66;4873346;29;20456;-89
2022/11/04 10:04:14;;;;;;;7.32;0.70;;;;;;;6.82;100.00;100455.34;4890710;29;20448;-86
2022/11/04 10:07:24;;;;;;;5.90;1.15;;;;;;;6.90;100.00;100452.97;4871546;29;20071;-89
2022/11/04 10:10:33;;;;;;;4.88;0.75;;;;;;;6.94;100.00;100445.69;4864461;29;20140;-89
2022/11/04 10:13:04;;;;;;;2.95;0.82;;;;;;;6.94;100.00;100458.84;4856366;29;20184;-86
2022/11/04 10:15:49;;;;;;;5.68;0.90;;;;;;;7.01;100.00;100448.66;4874427;29;20045;-85
2022/11/04 10:18:34;;;;;;;9.35;0.90;;;;;;;7.00;100.00;100447.00;4876409;29;20057;-89
2022/11/04 10:21:31;;;;;;;10.20;0.80;;;;;;;7.02;100.00;100452.97;4881740;29;20037;-89
2022/11/04 10:24:13;;;;;;;4.38;0.73;;;;;;;7.05;100.00;100458.84;4869075;29;20068;-89
2022/11/04 10:26:51;;;;;;;5.25;1.30;;;;;;;7.12;100.00;100453.91;4870369;29;20075;-87
2022/11/04 10:29:41;;;;;;;4.90;0.93;;;;;;;7.19;100.00;100455.09;4879575;29;20045;-87
2022/11/04 10:32:19;;;;;;;5.60;0.70;;;;;;;7.29;100.00;100455.19;4860293;29;20041;-89
2022/11/04 10:35:22;;;;;;;2.22;0.80;;;;;;;7.38;100.00;100466.78;4864449;29;20047;-89
2022/11/04 10:37:55;;;;;;;3.85;0.85;;;;;;;7.45;100.00;100467.13;4879383;29;20394;-88
2022/11/04 10:40:31;;;;;;;1.92;0.80;;;;;;;7.48;100.00;100468.66;4852739;29;20060;-90
2022/11/04 10:43:04;;;;;;;9.25;0.90;;;;;;;7.51;100.00;100460.53;4877931;29;20141;-89
2022/11/04 10:45:43;;;;;;;6.10;0.90;;;;;;;7.50;100.00;100461.50;4894181;29;20052;-89
2022/11/04 10:48:33;;;;;;;3.78;1.10;;;;;;;7.51;100.00;100464.00;4880252;29;20044;-89
2022/11/04 10:51:03;;;;;;;3.67;0.85;;;;;;;7.59;100.00;100458.13;4883671;29;20068;-89
2022/11/04 10:53:35;;;;;;;5.28;0.90;;;;;;;7.71;100.00;100450.19;4881260;29;20067;-87
2022/11/04 10:56:22;;;;;;;11.68;0.90;;;;;;;7.83;100.00;100457.06;4866341;29;20060;-86
2022/11/04 10:58:54;;;;;;;8.93;1.10;;;;;;;7.98;100.00;100449.69;4872108;29;20033;-87
2022/11/04 11:01:32;;;;;;;3.58;0.70;;;;;;;8.17;100.00;100462.16;4889215;29;20033;-86
2022/11/04 11:04:08;;;;;;;4.57;0.80;;;;;;;8.30;100.00;100453.25;4844854;29;20041;-87
2022/11/04 11:06:37;;;;;;;3.72;0.70;;;;;;;8.35;100.00;100464.22;4858981;29;20037;-89
2022/11/04 11:09:17;;;;;;;5.10;0.70;;;;;;;8.37;100.00;100454.41;4880439;29;20045;-90
2022/11/04 11:11:52;;;;;;;8.98;0.88;;;;;;;8.39;100.00;100459.53;4877681;29;20367;-89
2022/11/04 11:14:27;;;;;;;5.68;1.50;;;;;;;8.40;100.00;100463.84;4864602;29;20056;-89
2022/11/04 11:17:18;;;;;;;12.18;1.45;;;;;;;8.42;100.00;100468.03;4865017;29;20041;-89
2022/11/04 11:20:15;;;;;;;4.82;1.17;;;;;;;8.54;100.00;100471.44;4860899;29;20132;-86
2022/11/04 11:22:46;;;;;;;;;;;;;;;8.58;100.00;100464.13;4857673;29;20056;-89
2022/11/04 11:25:22;;;;;;;5.35;1.10;;;;;;;8.77;100.00;100454.63;4861264;29;20033;-89
2022/11/04 11:27:56;;;;;;;;;;;;;;;8.74;100.00;100463.66;4844645;29;20491;-89
2022/11/04 11:30:45;;;;;;;3.75;1.23;;;;;;;8.96;100.00;100460.94;4863275;29;19920;-89
2022/11/04 11:33:35;;;;;;;4.82;0.98;;;;;;;9.14;100.00;100461.97;4828881;29;20097;-89
2022/11/04 11:36:14;;;;;;;10.60;1.02;;;;;;;9.30;100.00;100456.19;4843768;29;20076;-88
2022/11/04 11:39:15;;;;;;;3.72;0.82;;;;;;;9.39;100.00;100449.28;4842290;29;20132;-89
2022/11/04 11:41:51;;;;;;;4.32;0.80;;;;;;;9.48;100.00;100438.84;4857278;29;20033;-88
2022/11/04 11:44:37;;;;;;;6.40;1.20;;;;;;;9.58;100.00;100434.41;4858973;29;20183;-89
2022/11/04 11:47:42;;;;;;;6.72;1.10;;;;;;;9.74;100.00;100425.97;4874722;29;20048;-88
2022/11/04 11:50:23;;;;;;;6.22;1.00;;;;;;;9.90;100.00;100419.28;4853980;29;22167;-88
2022/11/04 11:52:53;;;;;;;7.82;1.25;;;;;;;9.99;100.00;100421.06;4858545;29;20097;-89
2022/11/04 11:55:31;;;;;;;4.68;0.75;;;;;;;10.02;100.00;100410.22;4841650;29;20050;-88
2022/11/04 11:58:19;;;;;;;6.95;0.95;;;;;;;10.08;100.00;100419.38;4856647;29;20085;-88
2022/11/04 12:00:55;;;;;;;7.97;1.00;;;;;;;10.04;100.00;100428.56;4872188;29;20049;-89
2022/11/04 12:03:39;;;;;;;4.03;0.95;;;;;;;10.07;100.00;100432.72;4858282;29;20072;-88
2022/11/04 12:06:14;;;;;;;2.85;0.57;;;;;;;10.11;100.00;100431.47;4854996;29;20038;-89
2022/11/04 12:08:53;;;;;;;3.13;0.50;;;;;;;10.04;100.00;100441.78;4853240;29;20526;-89
2022/11/04 12:11:32;;;;;;;8.38;0.70;;;;;;;10.01;100.00;100434.13;4854083;29;20065;-88
2022/11/04 12:14:14;;;;;;;7.03;0.93;;;;;;;9.96;100.00;100437.19;4858453;29;20049;-88
2022/11/04 12:17:12;;;;;;;4.13;0.70;;;;;;;10.00;100.00;100438.56;4838967;29;20037;-89
2022/11/04 12:20:12;;;;;;;5.35;0.70;;;;;;;10.05;100.00;100428.41;4858882;29;20052;-88
2022/11/04 12:22:42;;;;;;;3.70;0.40;;;;;;;10.06;100.00;100429.25;4865587;29;20112;-87
2022/11/04 12:25:30;;;;;;;5.60;0.50;;;;;;;10.12;100.00;100435.78;4841339;29;20460;-87
2022/11/04 12:28:16;;;;;;;4.97;0.32;;;;;;;10.09;100.00;100434.25;4844975;29;20048;-88
2022/11/04 12:31:07;;;;;;;2.42;0.40;;;;;;;10.05;100.00;100433.72;4845070;29;20033;-87
2022/11/04 12:33:50;;;;;;;3.38;0.57;;;;;;;10.04;100.00;100437.31;4827949;29;20029;-88